createdAt,value
2023-03-16T00:01:15.555Z,1.30
2023-03-16T00:06:18.765Z,1.20
2023-03-16T00:11:22.241Z,1.13
2023-03-16T00:16:26.990Z,1.13
2023-03-16T00:21:32.096Z,1.13
2023-03-16T00:26:35.602Z,1.60
2023-03-16T00:31:43.961Z,0.90
2023-03-16T00:36:47.399Z,0.90
2023-03-16T00:41:50.611Z,0.70
2023-03-16T00:46:55.261Z,0.70
2023-03-16T00:51:58.430Z,0.67
2023-03-16T00:57:02.170Z,0.90
2023-03-16T01:02:07.970Z,1.00
2023-03-16T01:07:13.762Z,0.73
2023-03-16T01:12:19.262Z,0.73
2023-03-16T01:17:24.244Z,0.80
2023-03-16T01:22:28.667Z,0.70
2023-03-16T01:27:31.932Z,0.80
2023-03-16T01:32:36.620Z,0.80
2023-03-16T01:37:40.097Z,0.73
2023-03-16T01:43:00.452Z,0.63
2023-03-16T01:48:06.438Z,0.57
2023-03-16T01:53:10.028Z,0.97
2023-03-16T01:58:14.565Z,0.73
2023-03-16T02:03:21.676Z,0.50
2023-03-16T02:08:43.583Z,0.77
2023-03-16T02:13:47.738Z,0.50
2023-03-16T02:18:53.404Z,0.70
2023-03-16T02:23:57.010Z,0.43
2023-03-16T02:29:15.346Z,0.73
2023-03-16T02:34:21.853Z,0.50
2023-03-16T02:39:25.559Z,0.60
2023-03-16T02:44:34.279Z,0.80
2023-03-16T02:49:44.829Z,0.77
2023-03-16T02:54:48.064Z,0.93
2023-03-16T02:59:51.944Z,0.63
2023-03-16T03:04:56.582Z,0.90
2023-03-16T03:10:05.938Z,1.10
2023-03-16T03:15:10.291Z,0.83
2023-03-16T03:20:25.683Z,0.90
2023-03-16T03:25:30.347Z,0.90
2023-03-16T03:30:33.764Z,0.90
2023-03-16T03:35:38.839Z,0.70
2023-03-16T03:40:42.176Z,0.60
2023-03-16T03:45:45.565Z,0.43
2023-03-16T03:50:51.112Z,0.70
2023-03-16T03:56:13.084Z,0.80
2023-03-16T04:01:16.845Z,0.67
2023-03-16T04:06:21.532Z,1.00
2023-03-16T04:11:24.975Z,0.70
2023-03-16T04:16:29.166Z,0.83
2023-03-16T04:21:35.617Z,0.70
2023-03-16T04:26:39.136Z,0.53
2023-03-16T04:31:43.221Z,0.40
2023-03-16T04:36:48.354Z,0.50
2023-03-16T04:41:51.952Z,0.57
2023-03-16T04:46:59.887Z,0.60
2023-03-16T04:52:12.220Z,0.50
2023-03-16T04:57:19.463Z,0.60
2023-03-16T05:02:26.073Z,0.50
2023-03-16T05:07:32.428Z,0.53
2023-03-16T05:12:36.139Z,1.03
2023-03-16T05:17:43.110Z,0.57
2023-03-16T05:22:50.068Z,1.10
2023-03-16T05:28:06.551Z,0.73
2023-03-16T05:33:21.704Z,0.60
2023-03-16T05:38:32.158Z,0.53
2023-03-16T05:43:36.055Z,0.93
2023-03-16T05:48:39.634Z,0.90
2023-03-16T05:53:46.984Z,0.70
2023-03-16T05:59:00.424Z,0.80
2023-03-16T06:04:05.472Z,0.77
2023-03-16T06:09:13.649Z,4.80
2023-03-16T06:14:18.231Z,11.70
2023-03-16T06:19:22.548Z,15.10
2023-03-16T06:24:32.359Z,16.67
2023-03-16T06:29:35.590Z,17.50
2023-03-16T06:34:41.743Z,11.27
2023-03-16T06:39:47.043Z,7.13
2023-03-16T06:44:51.320Z,5.67
2023-03-16T06:49:55.407Z,2.40
2023-03-16T06:55:03.126Z,1.57
2023-03-16T07:00:11.276Z,1.07
2023-03-16T07:05:14.737Z,0.73
2023-03-16T07:10:20.290Z,0.90
2023-03-16T07:15:26.610Z,0.87
2023-03-16T07:20:33.258Z,0.80
2023-03-16T07:25:41.693Z,0.60
2023-03-16T07:31:02.460Z,1.47
2023-03-16T07:36:10.906Z,1.10
2023-03-16T07:41:21.963Z,1.00
2023-03-16T07:46:25.817Z,0.80
2023-03-16T07:51:29.454Z,1.23
2023-03-16T07:56:47.779Z,0.90
2023-03-16T08:02:05.288Z,1.07
2023-03-16T08:07:09.105Z,0.70
2023-03-16T08:12:29.441Z,0.80
2023-03-16T08:17:34.305Z,0.70
2023-03-16T08:22:41.180Z,0.63
2023-03-16T08:27:46.329Z,0.63
2023-03-16T08:32:51.191Z,0.97
2023-03-16T08:37:55.061Z,0.70
2023-03-16T08:43:01.889Z,0.57
2023-03-16T08:48:07.622Z,1.00
2023-03-16T08:53:14.165Z,0.80
2023-03-16T08:58:20.046Z,0.53
2023-03-16T09:03:23.406Z,0.83
2023-03-16T09:08:27.171Z,0.67
2023-03-16T09:13:32.969Z,0.60
2023-03-16T09:18:37.306Z,0.70
2023-03-16T09:23:43.210Z,0.77
2023-03-16T09:28:49.467Z,0.50
2023-03-16T09:33:52.800Z,0.80
2023-03-16T09:38:56.295Z,0.47
2023-03-16T09:44:11.765Z,0.60
2023-03-16T09:49:19.938Z,0.47
2023-03-16T09:54:32.845Z,1.00
2023-03-16T09:59:38.299Z,0.60
2023-03-16T10:04:52.250Z,0.80
2023-03-16T10:09:59.134Z,0.80
2023-03-16T10:15:12.676Z,0.80
2023-03-16T10:20:19.281Z,0.67
2023-03-16T10:25:27.114Z,0.80
2023-03-16T10:30:35.379Z,0.60
2023-03-16T10:35:47.020Z,0.60
2023-03-16T10:40:54.202Z,0.60
2023-03-16T10:46:03.434Z,0.90
2023-03-16T10:51:13.013Z,0.60
2023-03-16T10:56:24.237Z,0.83
2023-03-16T11:01:30.625Z,0.90
2023-03-16T11:06:34.744Z,0.60
2023-03-16T11:11:38.374Z,0.77
2023-03-16T11:16:47.963Z,0.70
2023-03-16T11:21:55.432Z,0.93
2023-03-16T11:27:06.083Z,0.43
2023-03-16T11:32:15.838Z,0.70
2023-03-16T11:37:34.118Z,0.60
2023-03-16T11:42:43.268Z,0.50
2023-03-16T11:48:17.081Z,0.40
2023-03-16T11:53:33.750Z,0.43
2023-03-16T11:58:52.394Z,0.50
2023-03-16T12:04:10.436Z,0.60
2023-03-16T12:09:38.088Z,0.43
2023-03-16T12:14:45.895Z,0.57
2023-03-16T12:19:55.245Z,0.50
2023-03-16T12:24:59.155Z,0.80
2023-03-16T12:30:15.381Z,0.60
2023-03-16T12:35:34.069Z,0.43
2023-03-16T12:40:46.544Z,0.33
2023-03-16T12:45:58.360Z,0.53
2023-03-16T12:51:05.729Z,0.60
2023-03-16T12:56:13.497Z,0.90
2023-03-16T13:01:20.157Z,0.70
2023-03-16T13:06:26.223Z,0.53
2023-03-16T13:11:29.949Z,0.60
2023-03-16T13:16:36.539Z,0.70
2023-03-16T13:21:43.378Z,0.67
2023-03-16T13:26:50.275Z,0.60
2023-03-16T13:31:55.863Z,0.83
2023-03-16T13:37:02.895Z,0.60
2023-03-16T13:42:18.090Z,0.80
2023-03-16T13:47:21.974Z,7.30
2023-03-16T13:52:30.843Z,1.33
2023-03-16T13:57:39.998Z,0.90
2023-03-16T14:02:45.130Z,0.57
2023-03-16T14:07:52.297Z,0.73
2023-03-16T14:12:58.062Z,0.80
2023-03-16T14:18:14.515Z,0.93
2023-03-16T14:23:24.682Z,0.70
2023-03-16T14:28:32.972Z,0.90
2023-03-16T14:33:40.265Z,0.70
2023-03-16T14:38:48.685Z,0.93
2023-03-16T14:43:56.354Z,0.80
2023-03-16T14:49:09.180Z,1.13
2023-03-16T14:54:17.247Z,1.17
2023-03-16T14:59:22.317Z,1.60
2023-03-16T15:04:31.228Z,1.10
2023-03-16T15:09:40.113Z,0.97
2023-03-16T15:15:01.372Z,1.10
2023-03-16T15:20:07.301Z,0.80
2023-03-16T15:25:23.174Z,1.27
2023-03-16T15:30:28.841Z,1.03
2023-03-16T15:35:32.430Z,0.77
2023-03-16T15:40:37.982Z,0.73
2023-03-16T15:45:41.412Z,2.50
2023-03-16T15:50:52.310Z,0.67
2023-03-16T15:56:01.320Z,0.80
2023-03-16T16:01:09.031Z,0.57
2023-03-16T16:06:13.253Z,0.50
2023-03-16T16:11:20.788Z,1.13
2023-03-16T16:16:24.024Z,1.00
2023-03-16T16:21:30.954Z,1.20
2023-03-16T16:26:49.848Z,1.67
2023-03-16T16:31:55.622Z,0.60
2023-03-16T16:36:59.245Z,0.53
2023-03-16T16:42:04.112Z,0.50
2023-03-16T16:47:22.573Z,0.70
2023-03-16T16:52:26.798Z,0.60
2023-03-16T16:57:31.826Z,0.73
2023-03-16T17:02:44.867Z,0.50
2023-03-16T17:07:48.564Z,0.47
2023-03-16T17:12:56.094Z,1.53
2023-03-16T17:18:04.317Z,0.67
2023-03-16T17:23:24.997Z,1.00
2023-03-16T17:28:32.892Z,1.10
2023-03-16T17:33:36.261Z,0.80
2023-03-16T17:38:40.034Z,1.03
2023-03-16T17:43:45.806Z,1.20
2023-03-16T17:48:51.013Z,1.00
2023-03-16T17:53:56.065Z,1.70
2023-03-16T17:59:04.725Z,3.60
2023-03-16T18:04:16.646Z,2.03
2023-03-16T18:09:21.550Z,1.63
2023-03-16T18:14:36.280Z,3.97
2023-03-16T18:19:40.033Z,2.63
2023-03-16T18:24:43.808Z,2.33
2023-03-16T18:29:48.897Z,1.60
2023-03-16T18:34:53.967Z,1.20
2023-03-16T18:39:57.420Z,1.10
2023-03-16T18:45:03.023Z,1.00
2023-03-16T18:50:07.824Z,1.07
2023-03-16T18:55:17.287Z,1.37
2023-03-16T19:00:24.473Z,0.97
2023-03-16T19:05:33.830Z,1.50
2023-03-16T19:10:42.644Z,0.90
2023-03-16T19:15:49.992Z,0.93
2023-03-16T19:20:55.004Z,0.90
2023-03-16T19:25:59.055Z,0.67
2023-03-16T19:31:08.493Z,0.83
2023-03-16T19:36:19.267Z,0.70
2023-03-16T19:41:26.942Z,0.70
2023-03-16T19:46:32.157Z,0.60
2023-03-16T19:51:35.613Z,1.27
2023-03-16T19:56:38.910Z,1.03
2023-03-16T20:01:44.217Z,1.03
2023-03-16T20:06:49.874Z,5.10
2023-03-16T20:11:53.468Z,4.67
2023-03-16T20:16:58.661Z,3.53
2023-03-16T20:22:02.025Z,2.10
2023-03-16T20:27:05.632Z,1.83
2023-03-16T20:32:18.500Z,2.27
2023-03-16T20:37:25.407Z,2.17
2023-03-16T20:42:32.232Z,2.10
2023-03-16T20:47:37.742Z,2.67
2023-03-16T20:52:41.495Z,2.50
2023-03-16T20:57:47.502Z,2.50
2023-03-16T21:02:53.729Z,2.43
2023-03-16T21:07:57.598Z,2.70
2023-03-16T21:13:01.719Z,2.43
2023-03-16T21:18:09.091Z,2.57
2023-03-16T21:23:15.539Z,3.30
2023-03-16T21:28:22.238Z,3.10
2023-03-16T21:33:31.641Z,3.20
2023-03-16T21:38:35.179Z,2.93
2023-03-16T21:43:39.304Z,3.40
2023-03-16T21:48:44.743Z,2.40
2023-03-16T21:53:49.889Z,2.87
2023-03-16T21:58:55.074Z,2.77
2023-03-16T22:04:03.870Z,2.70
2023-03-16T22:09:08.699Z,2.67
2023-03-16T22:14:11.955Z,2.70
2023-03-16T22:19:17.842Z,2.70
2023-03-16T22:24:24.811Z,3.47
2023-03-16T22:29:30.152Z,2.67
2023-03-16T22:34:42.311Z,2.87
2023-03-16T22:39:45.699Z,2.77
2023-03-16T22:44:48.887Z,2.93
2023-03-16T22:49:53.950Z,3.00
2023-03-16T22:54:57.805Z,2.20
2023-03-16T23:00:07.117Z,2.90
2023-03-16T23:05:24.644Z,2.80
2023-03-16T23:10:29.732Z,2.70
2023-03-16T23:15:39.385Z,2.37
2023-03-16T23:20:44.195Z,2.87
2023-03-16T23:25:49.465Z,2.43
2023-03-16T23:30:52.902Z,2.20
2023-03-16T23:35:57.557Z,2.23
2023-03-16T23:41:01.025Z,2.80
2023-03-16T23:46:05.967Z,2.30
2023-03-16T23:51:20.411Z,2.10
2023-03-16T23:56:24.391Z,2.37
